sensor_id;sensor_type;location;lat;lon;timestamp;temperature;humidity
43858;DHT22;29507;51.284;5.758;2022-09-01T00:02:05;16.40;87.00
43858;DHT22;29507;51.284;5.758;2022-09-01T00:04:35;16.40;87.20
43858;DHT22;29507;51.284;5.758;2022-09-01T00:07:07;16.20;88.10
43858;DHT22;29507;51.284;5.758;2022-09-01T00:09:33;16.10;88.60
43858;DHT22;29507;51.284;5.758;2022-09-01T00:11:59;16.00;88.50
43858;DHT22;29507;51.284;5.758;2022-09-01T00:14:29;16.00;88.70
43858;DHT22;29507;51.284;5.758;2022-09-01T00:16:59;16.00;88.70
43858;DHT22;29507;51.284;5.758;2022-09-01T00:19:25;15.90;89.90
43858;DHT22;29507;51.284;5.758;2022-09-01T00:21:51;15.90;89.10
43858;DHT22;29507;51.284;5.758;2022-09-01T00:24:18;15.90;89.00
43858;DHT22;29507;51.284;5.758;2022-09-01T00:26:44;15.90;88.80
43858;DHT22;29507;51.284;5.758;2022-09-01T00:29:11;15.90;88.70
43858;DHT22;29507;51.284;5.758;2022-09-01T00:31:37;15.80;89.50
43858;DHT22;29507;51.284;5.758;2022-09-01T00:34:03;15.70;90.20
43858;DHT22;29507;51.284;5.758;2022-09-01T00:36:29;15.60;90.50
43858;DHT22;29507;51.284;5.758;2022-09-01T00:38:55;15.60;90.20
43858;DHT22;29507;51.284;5.758;2022-09-01T00:41:24;15.60;90.30
43858;DHT22;29507;51.284;5.758;2022-09-01T00:44:02;15.60;90.10
43858;DHT22;29507;51.284;5.758;2022-09-01T00:46:35;15.60;90.20
43858;DHT22;29507;51.284;5.758;2022-09-01T00:49:05;15.50;90.00
43858;DHT22;29507;51.284;5.758;2022-09-01T00:51:34;15.50;90.20
43858;DHT22;29507;51.284;5.758;2022-09-01T00:54:05;15.40;90.40
43858;DHT22;29507;51.284;5.758;2022-09-01T00:56:33;15.40;90.70
43858;DHT22;29507;51.284;5.758;2022-09-01T00:59:00;15.30;91.00
43858;DHT22;29507;51.284;5.758;2022-09-01T01:01:26;15.20;91.30
43858;DHT22;29507;51.284;5.758;2022-09-01T01:03:52;15.20;91.70
43858;DHT22;29507;51.284;5.758;2022-09-01T01:06:18;15.20;91.70
43858;DHT22;29507;51.284;5.758;2022-09-01T01:08:48;15.30;91.10
43858;DHT22;29507;51.284;5.758;2022-09-01T01:11:22;15.20;91.00
43858;DHT22;29507;51.284;5.758;2022-09-01T01:13:59;15.20;91.30
43858;DHT22;29507;51.284;5.758;2022-09-01T01:16:27;15.20;91.20
43858;DHT22;29507;51.284;5.758;2022-09-01T01:18:53;15.20;91.40
43858;DHT22;29507;51.284;5.758;2022-09-01T01:21:34;15.20;91.60
43858;DHT22;29507;51.284;5.758;2022-09-01T01:24:26;15.10;91.60
43858;DHT22;29507;51.284;5.758;2022-09-01T01:26:53;15.10;92.00
43858;DHT22;29507;51.284;5.758;2022-09-01T01:29:34;15.10;91.70
43858;DHT22;29507;51.284;5.758;2022-09-01T01:32:02;15.10;92.00
43858;DHT22;29507;51.284;5.758;2022-09-01T01:34:29;15.10;92.20
43858;DHT22;29507;51.284;5.758;2022-09-01T01:36:56;15.10;92.20
43858;DHT22;29507;51.284;5.758;2022-09-01T01:39:24;15.20;91.90
43858;DHT22;29507;51.284;5.758;2022-09-01T01:41:51;15.20;92.00
43858;DHT22;29507;51.284;5.758;2022-09-01T01:44:20;15.10;92.40
43858;DHT22;29507;51.284;5.758;2022-09-01T01:46:50;15.00;92.60
43858;DHT22;29507;51.284;5.758;2022-09-01T01:49:20;14.90;92.80
43858;DHT22;29507;51.284;5.758;2022-09-01T01:51:50;14.90;93.30
43858;DHT22;29507;51.284;5.758;2022-09-01T01:54:22;14.80;93.50
43858;DHT22;29507;51.284;5.758;2022-09-01T01:56:49;14.80;93.50
43858;DHT22;29507;51.284;5.758;2022-09-01T01:59:14;14.80;93.80
43858;DHT22;29507;51.284;5.758;2022-09-01T02:01:42;14.70;94.30
43858;DHT22;29507;51.284;5.758;2022-09-01T02:04:09;14.60;94.80
43858;DHT22;29507;51.284;5.758;2022-09-01T02:06:36;14.50;95.30
43858;DHT22;29507;51.284;5.758;2022-09-01T02:09:06;14.50;96.10
43858;DHT22;29507;51.284;5.758;2022-09-01T02:11:32;14.40;96.70
43858;DHT22;29507;51.284;5.758;2022-09-01T02:14:04;14.30;97.20
43858;DHT22;29507;51.284;5.758;2022-09-01T02:16:32;14.20;98.20
43858;DHT22;29507;51.284;5.758;2022-09-01T02:19:00;14.10;99.10
43858;DHT22;29507;51.284;5.758;2022-09-01T02:21:26;14.00;99.70
43858;DHT22;29507;51.284;5.758;2022-09-01T02:24:00;14.00;99.90
43858;DHT22;29507;51.284;5.758;2022-09-01T02:26:32;13.90;99.90
43858;DHT22;29507;51.284;5.758;2022-09-01T02:29:00;13.90;99.90
43858;DHT22;29507;51.284;5.758;2022-09-01T02:31:29;13.80;99.90
43858;DHT22;29507;51.284;5.758;2022-09-01T02:33:56;13.80;99.90
43858;DHT22;29507;51.284;5.758;2022-09-01T02:36:22;13.80;99.90
43858;DHT22;29507;51.284;5.758;2022-09-01T02:38:49;13.80;99.90
43858;DHT22;29507;51.284;5.758;2022-09-01T02:41:17;13.70;99.90
43858;DHT22;29507;51.284;5.758;2022-09-01T02:43:45;13.60;99.90
43858;DHT22;29507;51.284;5.758;2022-09-01T02:46:11;13.50;99.90
43858;DHT22;29507;51.284;5.758;2022-09-01T02:48:39;13.50;99.90
43858;DHT22;29507;51.284;5.758;2022-09-01T02:51:17;13.40;99.90
43858;DHT22;29507;51.284;5.758;2022-09-01T02:53:44;13.30;99.90
43858;DHT22;29507;51.284;5.758;2022-09-01T02:56:22;13.30;99.90
43858;DHT22;29507;51.284;5.758;2022-09-01T02:58:48;13.30;99.90
43858;DHT22;29507;51.284;5.758;2022-09-01T03:01:20;13.20;99.90
43858;DHT22;29507;51.284;5.758;2022-09-01T03:03:51;13.20;99.90
43858;DHT22;29507;51.284;5.758;2022-09-01T03:06:18;13.10;99.90
43858;DHT22;29507;51.284;5.758;2022-09-01T03:08:49;13.10;99.90
43858;DHT22;29507;51.284;5.758;2022-09-01T03:11:16;13.00;99.90
43858;DHT22;29507;51.284;5.758;2022-09-01T03:13:43;13.00;99.90
43858;DHT22;29507;51.284;5.758;2022-09-01T03:16:09;13.00;99.90
43858;DHT22;29507;51.284;5.758;2022-09-01T03:18:35;12.90;99.90
43858;DHT22;29507;51.284;5.758;2022-09-01T03:21:01;12.90;99.90
43858;DHT22;29507;51.284;5.758;2022-09-01T03:23:28;12.90;99.90
43858;DHT22;29507;51.284;5.758;2022-09-01T03:25:55;12.90;99.90
43858;DHT22;29507;51.284;5.758;2022-09-01T03:28:21;12.90;99.90
43858;DHT22;29507;51.284;5.758;2022-09-01T03:30:49;12.80;99.90
43858;DHT22;29507;51.284;5.758;2022-09-01T03:33:17;12.70;99.90
43858;DHT22;29507;51.284;5.758;2022-09-01T03:35:43;12.60;99.90
43858;DHT22;29507;51.284;5.758;2022-09-01T03:38:10;12.50;99.90
43858;DHT22;29507;51.284;5.758;2022-09-01T03:40:38;12.50;99.90
43858;DHT22;29507;51.284;5.758;2022-09-01T03:43:07;12.50;99.90
43858;DHT22;29507;51.284;5.758;2022-09-01T03:45:37;12.50;99.90
43858;DHT22;29507;51.284;5.758;2022-09-01T03:48:06;12.50;99.90
43858;DHT22;29507;51.284;5.758;2022-09-01T03:50:38;12.40;99.90
43858;DHT22;29507;51.284;5.758;2022-09-01T03:53:06;12.40;99.90
43858;DHT22;29507;51.284;5.758;2022-09-01T03:55:33;12.30;99.90
43858;DHT22;29507;51.284;5.758;2022-09-01T03:58:05;12.20;99.90
43858;DHT22;29507;51.284;5.758;2022-09-01T04:00:43;12.20;99.90
43858;DHT22;29507;51.284;5.758;2022-09-01T04:03:10;12.20;99.90
43858;DHT22;29507;51.284;5.758;2022-09-01T04:05:41;12.20;99.90
43858;DHT22;29507;51.284;5.758;2022-09-01T04:08:08;12.10;99.90
43858;DHT22;29507;51.284;5.758;2022-09-01T04:10:52;12.10;99.90
43858;DHT22;29507;51.284;5.758;2022-09-01T04:13:29;12.10;99.90
43858;DHT22;29507;51.284;5.758;2022-09-01T04:15:56;12.10;99.90
43858;DHT22;29507;51.284;5.758;2022-09-01T04:18:22;12.10;99.90
43858;DHT22;29507;51.284;5.758;2022-09-01T04:20:53;12.00;99.90
43858;DHT22;29507;51.284;5.758;2022-09-01T04:23:29;12.00;99.90
43858;DHT22;29507;51.284;5.758;2022-09-01T04:26:04;12.00;99.90
43858;DHT22;29507;51.284;5.758;2022-09-01T04:28:34;12.00;99.90
43858;DHT22;29507;51.284;5.758;2022-09-01T04:31:03;12.00;99.90
43858;DHT22;29507;51.284;5.758;2022-09-01T04:33:31;12.10;99.90
43858;DHT22;29507;51.284;5.758;2022-09-01T04:36:01;12.00;99.90
43858;DHT22;29507;51.284;5.758;2022-09-01T04:38:28;12.10;99.90
43858;DHT22;29507;51.284;5.758;2022-09-01T04:40:55;12.10;99.90
43858;DHT22;29507;51.284;5.758;2022-09-01T04:43:22;12.10;99.90
43858;DHT22;29507;51.284;5.758;2022-09-01T04:45:48;12.10;99.90
43858;DHT22;29507;51.284;5.758;2022-09-01T04:48:19;12.00;99.90
43858;DHT22;29507;51.284;5.758;2022-09-01T04:50:47;12.00;99.90
43858;DHT22;29507;51.284;5.758;2022-09-01T04:53:14;12.00;99.90
43858;DHT22;29507;51.284;5.758;2022-09-01T04:55:41;12.00;99.90
43858;DHT22;29507;51.284;5.758;2022-09-01T04:58:09;12.00;99.90
43858;DHT22;29507;51.284;5.758;2022-09-01T05:00:38;12.00;99.90
43858;DHT22;29507;51.284;5.758;2022-09-01T05:03:05;12.10;99.90
43858;DHT22;29507;51.284;5.758;2022-09-01T05:05:44;12.10;99.90
43858;DHT22;29507;51.284;5.758;2022-09-01T05:08:16;12.10;99.90
43858;DHT22;29507;51.284;5.758;2022-09-01T05:10:45;12.10;99.90
43858;DHT22;29507;51.284;5.758;2022-09-01T05:13:13;12.20;99.90
43858;DHT22;29507;51.284;5.758;2022-09-01T05:15:42;12.30;99.90
43858;DHT22;29507;51.284;5.758;2022-09-01T05:18:19;12.20;99.90
43858;DHT22;29507;51.284;5.758;2022-09-01T05:20:50;12.30;99.90
43858;DHT22;29507;51.284;5.758;2022-09-01T05:23:17;12.30;99.90
43858;DHT22;29507;51.284;5.758;2022-09-01T05:25:49;12.30;99.90
43858;DHT22;29507;51.284;5.758;2022-09-01T05:28:17;12.30;99.90
43858;DHT22;29507;51.284;5.758;2022-09-01T05:30:45;12.40;99.90
43858;DHT22;29507;51.284;5.758;2022-09-01T05:33:12;12.50;99.90
43858;DHT22;29507;51.284;5.758;2022-09-01T05:35:42;12.60;99.90
43858;DHT22;29507;51.284;5.758;2022-09-01T05:38:10;12.60;99.90
43858;DHT22;29507;51.284;5.758;2022-09-01T05:40:41;12.70;99.90
43858;DHT22;29507;51.284;5.758;2022-09-01T05:43:10;12.80;99.90
43858;DHT22;29507;51.284;5.758;2022-09-01T05:45:38;12.90;99.90
43858;DHT22;29507;51.284;5.758;2022-09-01T05:48:06;13.00;99.90
43858;DHT22;29507;51.284;5.758;2022-09-01T05:50:34;13.00;99.90
43858;DHT22;29507;51.284;5.758;2022-09-01T05:52:59;13.10;99.90
43858;DHT22;29507;51.284;5.758;2022-09-01T05:55:25;13.20;99.90
43858;DHT22;29507;51.284;5.758;2022-09-01T05:57:52;13.30;99.90
43858;DHT22;29507;51.284;5.758;2022-09-01T06:00:18;13.40;99.90
43858;DHT22;29507;51.284;5.758;2022-09-01T06:02:44;13.50;99.90
43858;DHT22;29507;51.284;5.758;2022-09-01T06:05:11;13.50;99.90
43858;DHT22;29507;51.284;5.758;2022-09-01T06:07:38;13.60;99.90
43858;DHT22;29507;51.284;5.758;2022-09-01T06:10:05;13.70;99.90
43858;DHT22;29507;51.284;5.758;2022-09-01T06:12:31;13.80;99.90
43858;DHT22;29507;51.284;5.758;2022-09-01T06:14:58;13.80;99.90
43858;DHT22;29507;51.284;5.758;2022-09-01T06:17:25;13.90;99.90
43858;DHT22;29507;51.284;5.758;2022-09-01T06:19:53;14.00;99.90
43858;DHT22;29507;51.284;5.758;2022-09-01T06:22:21;14.10;99.90
43858;DHT22;29507;51.284;5.758;2022-09-01T06:24:48;14.20;99.90
43858;DHT22;29507;51.284;5.758;2022-09-01T06:27:16;14.40;99.90
43858;DHT22;29507;51.284;5.758;2022-09-01T06:29:44;14.50;99.90
43858;DHT22;29507;51.284;5.758;2022-09-01T06:32:12;14.60;99.90
43858;DHT22;29507;51.284;5.758;2022-09-01T06:34:40;14.60;99.90
43858;DHT22;29507;51.284;5.758;2022-09-01T06:37:12;14.70;99.90
43858;DHT22;29507;51.284;5.758;2022-09-01T06:39:38;14.90;99.90
43858;DHT22;29507;51.284;5.758;2022-09-01T06:42:04;15.00;99.90
43858;DHT22;29507;51.284;5.758;2022-09-01T06:44:29;15.10;99.90
43858;DHT22;29507;51.284;5.758;2022-09-01T06:46:57;15.30;99.90
43858;DHT22;29507;51.284;5.758;2022-09-01T06:49:24;16.20;99.90
43858;DHT22;29507;51.284;5.758;2022-09-01T06:51:59;17.50;97.00
43858;DHT22;29507;51.284;5.758;2022-09-01T06:54:24;18.50;91.60
43858;DHT22;29507;51.284;5.758;2022-09-01T06:56:50;19.10;89.10
43858;DHT22;29507;51.284;5.758;2022-09-01T06:59:19;19.50;85.80
43858;DHT22;29507;51.284;5.758;2022-09-01T07:01:44;20.10;83.40
43858;DHT22;29507;51.284;5.758;2022-09-01T07:04:13;20.30;81.40
43858;DHT22;29507;51.284;5.758;2022-09-01T07:06:44;20.60;79.90
43858;DHT22;29507;51.284;5.758;2022-09-01T07:09:19;21.20;78.90
43858;DHT22;29507;51.284;5.758;2022-09-01T07:11:45;21.80;75.90
43858;DHT22;29507;51.284;5.758;2022-09-01T07:14:10;22.20;74.60
43858;DHT22;29507;51.284;5.758;2022-09-01T07:16:41;22.40;73.20
43858;DHT22;29507;51.284;5.758;2022-09-01T07:19:09;22.60;72.50
43858;DHT22;29507;51.284;5.758;2022-09-01T07:21:40;22.80;71.70
43858;DHT22;29507;51.284;5.758;2022-09-01T07:24:08;23.00;71.60
43858;DHT22;29507;51.284;5.758;2022-09-01T07:26:35;23.30;70.60
43858;DHT22;29507;51.284;5.758;2022-09-01T07:29:05;23.30;69.60
43858;DHT22;29507;51.284;5.758;2022-09-01T07:31:41;23.30;69.90
43858;DHT22;29507;51.284;5.758;2022-09-01T07:34:11;23.50;69.60
43858;DHT22;29507;51.284;5.758;2022-09-01T07:36:41;23.90;68.30
43858;DHT22;29507;51.284;5.758;2022-09-01T07:39:10;24.00;68.20
43858;DHT22;29507;51.284;5.758;2022-09-01T07:41:38;24.30;67.60
43858;DHT22;29507;51.284;5.758;2022-09-01T07:44:08;24.60;67.00
43858;DHT22;29507;51.284;5.758;2022-09-01T07:46:36;24.70;65.70
43858;DHT22;29507;51.284;5.758;2022-09-01T07:49:02;24.60;65.50
43858;DHT22;29507;51.284;5.758;2022-09-01T07:51:29;24.40;65.30
43858;DHT22;29507;51.284;5.758;2022-09-01T07:53:55;24.20;66.00
43858;DHT22;29507;51.284;5.758;2022-09-01T07:56:22;24.20;66.10
43858;DHT22;29507;51.284;5.758;2022-09-01T07:58:50;24.40;66.40
43858;DHT22;29507;51.284;5.758;2022-09-01T08:01:18;24.70;65.40
43858;DHT22;29507;51.284;5.758;2022-09-01T08:03:46;24.70;65.30
43858;DHT22;29507;51.284;5.758;2022-09-01T08:06:14;24.80;65.50
43858;DHT22;29507;51.284;5.758;2022-09-01T08:08:43;24.90;66.10
43858;DHT22;29507;51.284;5.758;2022-09-01T08:11:15;25.20;64.40
43858;DHT22;29507;51.284;5.758;2022-09-01T08:13:42;25.30;63.90
43858;DHT22;29507;51.284;5.758;2022-09-01T08:16:09;25.30;64.30
43858;DHT22;29507;51.284;5.758;2022-09-01T08:18:34;25.40;64.20
43858;DHT22;29507;51.284;5.758;2022-09-01T08:21:08;25.70;63.20
43858;DHT22;29507;51.284;5.758;2022-09-01T08:23:34;26.00;63.10
43858;DHT22;29507;51.284;5.758;2022-09-01T08:26:05;26.40;62.40
43858;DHT22;29507;51.284;5.758;2022-09-01T08:28:31;26.70;61.60
43858;DHT22;29507;51.284;5.758;2022-09-01T08:30:58;26.70;61.00
43858;DHT22;29507;51.284;5.758;2022-09-01T08:33:24;26.40;61.30
43858;DHT22;29507;51.284;5.758;2022-09-01T08:35:51;26.20;62.10
43858;DHT22;29507;51.284;5.758;2022-09-01T08:38:16;26.50;61.60
43858;DHT22;29507;51.284;5.758;2022-09-01T08:40:50;26.70;61.10
43858;DHT22;29507;51.284;5.758;2022-09-01T08:45:57;27.10;59.80
43858;DHT22;29507;51.284;5.758;2022-09-01T08:51:04;26.90;60.30
43858;DHT22;29507;51.284;5.758;2022-09-01T08:53:40;26.90;60.40
43858;DHT22;29507;51.284;5.758;2022-09-01T08:56:08;27.00;60.10
43858;DHT22;29507;51.284;5.758;2022-09-01T08:58:35;27.20;59.80
43858;DHT22;29507;51.284;5.758;2022-09-01T09:01:07;27.50;59.60
43858;DHT22;29507;51.284;5.758;2022-09-01T09:09:13;27.70;58.40
43858;DHT22;29507;51.284;5.758;2022-09-01T09:16:52;27.90;57.60
43858;DHT22;29507;51.284;5.758;2022-09-01T09:19:26;27.90;58.70
43858;DHT22;29507;51.284;5.758;2022-09-01T09:21:53;27.90;56.50
43858;DHT22;29507;51.284;5.758;2022-09-01T09:27:35;28.10;56.40
43858;DHT22;29507;51.284;5.758;2022-09-01T09:32:55;27.90;55.40
43858;DHT22;29507;51.284;5.758;2022-09-01T09:37:55;28.10;55.40
43858;DHT22;29507;51.284;5.758;2022-09-01T09:40:25;28.20;55.00
43858;DHT22;29507;51.284;5.758;2022-09-01T09:46:02;28.00;53.80
43858;DHT22;29507;51.284;5.758;2022-09-01T09:48:37;28.00;54.30
43858;DHT22;29507;51.284;5.758;2022-09-01T09:51:19;28.40;51.90
43858;DHT22;29507;51.284;5.758;2022-09-01T09:53:45;27.90;50.30
43858;DHT22;29507;51.284;5.758;2022-09-01T09:58:41;28.10;53.10
43858;DHT22;29507;51.284;5.758;2022-09-01T10:03:55;28.80;51.20
43858;DHT22;29507;51.284;5.758;2022-09-01T10:06:35;28.70;51.30
43858;DHT22;29507;51.284;5.758;2022-09-01T10:09:06;28.80;51.40
43858;DHT22;29507;51.284;5.758;2022-09-01T10:11:41;28.80;50.00
43858;DHT22;29507;51.284;5.758;2022-09-01T10:14:18;28.70;50.90
43858;DHT22;29507;51.284;5.758;2022-09-01T10:16:46;28.80;50.00
43858;DHT22;29507;51.284;5.758;2022-09-01T10:19:14;29.10;50.50
43858;DHT22;29507;51.284;5.758;2022-09-01T10:21:44;29.40;49.40
43858;DHT22;29507;51.284;5.758;2022-09-01T10:24:17;29.30;49.30
43858;DHT22;29507;51.284;5.758;2022-09-01T10:26:45;29.10;50.10
43858;DHT22;29507;51.284;5.758;2022-09-01T10:29:17;29.20;49.50
43858;DHT22;29507;51.284;5.758;2022-09-01T10:31:45;29.80;49.00
43858;DHT22;29507;51.284;5.758;2022-09-01T10:34:15;29.60;48.40
43858;DHT22;29507;51.284;5.758;2022-09-01T10:36:43;30.00;48.90
43858;DHT22;29507;51.284;5.758;2022-09-01T10:39:16;30.40;48.10
43858;DHT22;29507;51.284;5.758;2022-09-01T10:46:49;30.20;47.70
43858;DHT22;29507;51.284;5.758;2022-09-01T10:49:55;30.00;47.90
43858;DHT22;29507;51.284;5.758;2022-09-01T10:52:06;30.10;47.20
43858;DHT22;29507;51.284;5.758;2022-09-01T10:57:27;30.70;46.20
43858;DHT22;29507;51.284;5.758;2022-09-01T11:05:59;31.20;45.30
43858;DHT22;29507;51.284;5.758;2022-09-01T11:16:36;31.40;45.80
43858;DHT22;29507;51.284;5.758;2022-09-01T11:22:41;31.80;45.80
43858;DHT22;29507;51.284;5.758;2022-09-01T11:35:32;31.30;45.10
43858;DHT22;29507;51.284;5.758;2022-09-01T11:38:03;31.70;44.40
43858;DHT22;29507;51.284;5.758;2022-09-01T11:40:32;32.00;44.60
43858;DHT22;29507;51.284;5.758;2022-09-01T11:43:03;32.10;43.60
43858;DHT22;29507;51.284;5.758;2022-09-01T11:45:32;32.50;44.20
43858;DHT22;29507;51.284;5.758;2022-09-01T11:48:10;32.70;43.50
43858;DHT22;29507;51.284;5.758;2022-09-01T11:50:39;32.30;43.10
43858;DHT22;29507;51.284;5.758;2022-09-01T11:53:12;32.20;44.10
43858;DHT22;29507;51.284;5.758;2022-09-01T11:55:43;32.30;44.30
43858;DHT22;29507;51.284;5.758;2022-09-01T11:58:27;32.70;44.50
43858;DHT22;29507;51.284;5.758;2022-09-01T12:00:54;32.90;43.20
43858;DHT22;29507;51.284;5.758;2022-09-01T12:03:24;33.00;43.00
43858;DHT22;29507;51.284;5.758;2022-09-01T12:05:54;33.10;42.60
43858;DHT22;29507;51.284;5.758;2022-09-01T12:08:28;33.20;42.70
43858;DHT22;29507;51.284;5.758;2022-09-01T12:11:10;33.50;42.40
43858;DHT22;29507;51.284;5.758;2022-09-01T12:13:38;33.50;42.30
43858;DHT22;29507;51.284;5.758;2022-09-01T12:16:07;33.50;42.50
43858;DHT22;29507;51.284;5.758;2022-09-01T12:18:43;33.60;41.70
43858;DHT22;29507;51.284;5.758;2022-09-01T12:21:29;33.50;41.20
43858;DHT22;29507;51.284;5.758;2022-09-01T12:24:16;33.50;41.90
43858;DHT22;29507;51.284;5.758;2022-09-01T12:26:43;33.60;42.30
43858;DHT22;29507;51.284;5.758;2022-09-01T12:29:10;33.50;41.00
43858;DHT22;29507;51.284;5.758;2022-09-01T12:31:40;33.30;41.90
43858;DHT22;29507;51.284;5.758;2022-09-01T12:39:37;33.70;41.40
43858;DHT22;29507;51.284;5.758;2022-09-01T12:44:42;33.60;41.20
43858;DHT22;29507;51.284;5.758;2022-09-01T12:47:10;33.70;41.10
43858;DHT22;29507;51.284;5.758;2022-09-01T12:49:45;33.80;40.80
43858;DHT22;29507;51.284;5.758;2022-09-01T12:55:17;34.40;40.60
43858;DHT22;29507;51.284;5.758;2022-09-01T12:57:49;34.10;40.00
43858;DHT22;29507;51.284;5.758;2022-09-01T13:00:28;34.10;40.20
43858;DHT22;29507;51.284;5.758;2022-09-01T13:05:40;34.30;40.70
43858;DHT22;29507;51.284;5.758;2022-09-01T13:08:08;34.60;40.20
43858;DHT22;29507;51.284;5.758;2022-09-01T13:13:04;34.80;39.70
43858;DHT22;29507;51.284;5.758;2022-09-01T13:15:30;34.40;39.90
43858;DHT22;29507;51.284;5.758;2022-09-01T13:17:56;34.10;40.30
43858;DHT22;29507;51.284;5.758;2022-09-01T13:20:22;34.40;40.40
43858;DHT22;29507;51.284;5.758;2022-09-01T13:22:48;34.30;39.70
43858;DHT22;29507;51.284;5.758;2022-09-01T13:25:19;34.20;40.40
43858;DHT22;29507;51.284;5.758;2022-09-01T13:27:45;34.80;40.80
43858;DHT22;29507;51.284;5.758;2022-09-01T13:30:14;34.60;40.00
43858;DHT22;29507;51.284;5.758;2022-09-01T13:32:41;34.80;40.20
43858;DHT22;29507;51.284;5.758;2022-09-01T13:35:07;34.90;39.50
43858;DHT22;29507;51.284;5.758;2022-09-01T13:37:33;34.50;39.90
43858;DHT22;29507;51.284;5.758;2022-09-01T13:40:00;35.00;39.90
43858;DHT22;29507;51.284;5.758;2022-09-01T13:42:25;35.10;40.30
43858;DHT22;29507;51.284;5.758;2022-09-01T13:44:51;34.90;40.30
43858;DHT22;29507;51.284;5.758;2022-09-01T13:47:17;34.80;40.30
43858;DHT22;29507;51.284;5.758;2022-09-01T13:49:43;34.90;40.90
43858;DHT22;29507;51.284;5.758;2022-09-01T13:52:09;34.90;40.30
43858;DHT22;29507;51.284;5.758;2022-09-01T13:54:35;34.80;40.30
43858;DHT22;29507;51.284;5.758;2022-09-01T13:57:00;35.60;40.20
43858;DHT22;29507;51.284;5.758;2022-09-01T13:59:26;35.70;39.80
43858;DHT22;29507;51.284;5.758;2022-09-01T14:01:51;35.70;39.80
43858;DHT22;29507;51.284;5.758;2022-09-01T14:04:17;35.60;38.90
43858;DHT22;29507;51.284;5.758;2022-09-01T14:06:44;35.30;39.50
43858;DHT22;29507;51.284;5.758;2022-09-01T14:09:11;35.10;39.60
43858;DHT22;29507;51.284;5.758;2022-09-01T14:11:37;35.10;40.00
43858;DHT22;29507;51.284;5.758;2022-09-01T14:14:03;34.80;40.00
43858;DHT22;29507;51.284;5.758;2022-09-01T14:16:29;34.70;40.40
43858;DHT22;29507;51.284;5.758;2022-09-01T14:19:06;34.50;39.70
43858;DHT22;29507;51.284;5.758;2022-09-01T14:21:35;34.40;40.20
43858;DHT22;29507;51.284;5.758;2022-09-01T14:24:01;34.30;40.50
43858;DHT22;29507;51.284;5.758;2022-09-01T14:26:27;34.40;40.00
43858;DHT22;29507;51.284;5.758;2022-09-01T14:28:53;34.20;40.20
43858;DHT22;29507;51.284;5.758;2022-09-01T14:31:19;34.00;40.70
43858;DHT22;29507;51.284;5.758;2022-09-01T14:33:45;33.90;40.30
43858;DHT22;29507;51.284;5.758;2022-09-01T14:36:25;33.60;40.20
43858;DHT22;29507;51.284;5.758;2022-09-01T14:38:51;33.50;40.30
43858;DHT22;29507;51.284;5.758;2022-09-01T14:41:19;33.20;40.50
43858;DHT22;29507;51.284;5.758;2022-09-01T14:43:47;33.00;41.10
43858;DHT22;29507;51.284;5.758;2022-09-01T14:46:14;33.10;40.70
43858;DHT22;29507;51.284;5.758;2022-09-01T14:48:41;33.00;41.30
43858;DHT22;29507;51.284;5.758;2022-09-01T14:51:19;32.90;40.80
43858;DHT22;29507;51.284;5.758;2022-09-01T14:53:47;32.80;40.50
43858;DHT22;29507;51.284;5.758;2022-09-01T14:56:13;32.30;41.30
43858;DHT22;29507;51.284;5.758;2022-09-01T14:58:42;31.90;41.70
43858;DHT22;29507;51.284;5.758;2022-09-01T15:01:09;31.60;42.50
43858;DHT22;29507;51.284;5.758;2022-09-01T15:03:36;31.40;42.40
43858;DHT22;29507;51.284;5.758;2022-09-01T15:06:02;31.60;41.40
43858;DHT22;29507;51.284;5.758;2022-09-01T15:08:28;31.30;41.70
43858;DHT22;29507;51.284;5.758;2022-09-01T15:10:54;30.80;42.30
43858;DHT22;29507;51.284;5.758;2022-09-01T15:13:19;30.10;43.10
43858;DHT22;29507;51.284;5.758;2022-09-01T15:15:45;30.00;43.50
43858;DHT22;29507;51.284;5.758;2022-09-01T15:18:11;30.10;43.50
43858;DHT22;29507;51.284;5.758;2022-09-01T15:20:43;30.10;43.40
43858;DHT22;29507;51.284;5.758;2022-09-01T15:23:14;30.30;42.80
43858;DHT22;29507;51.284;5.758;2022-09-01T15:25:40;30.00;43.70
43858;DHT22;29507;51.284;5.758;2022-09-01T15:28:07;29.80;43.60
43858;DHT22;29507;51.284;5.758;2022-09-01T15:30:33;29.60;43.50
43858;DHT22;29507;51.284;5.758;2022-09-01T15:32:59;29.40;43.90
43858;DHT22;29507;51.284;5.758;2022-09-01T15:35:27;29.40;43.90
43858;DHT22;29507;51.284;5.758;2022-09-01T15:37:53;29.20;43.90
43858;DHT22;29507;51.284;5.758;2022-09-01T15:40:21;29.20;43.80
43858;DHT22;29507;51.284;5.758;2022-09-01T15:42:47;29.20;44.20
43858;DHT22;29507;51.284;5.758;2022-09-01T15:45:18;29.10;44.90
43858;DHT22;29507;51.284;5.758;2022-09-01T15:47:45;29.00;44.00
43858;DHT22;29507;51.284;5.758;2022-09-01T15:50:14;28.90;44.50
43858;DHT22;29507;51.284;5.758;2022-09-01T15:52:52;28.90;44.30
43858;DHT22;29507;51.284;5.758;2022-09-01T15:55:24;28.70;44.80
43858;DHT22;29507;51.284;5.758;2022-09-01T15:57:50;28.70;45.00
43858;DHT22;29507;51.284;5.758;2022-09-01T16:00:20;28.60;45.00
43858;DHT22;29507;51.284;5.758;2022-09-01T16:02:49;28.40;44.90
43858;DHT22;29507;51.284;5.758;2022-09-01T16:05:14;28.30;45.30
43858;DHT22;29507;51.284;5.758;2022-09-01T16:07:40;28.30;45.70
43858;DHT22;29507;51.284;5.758;2022-09-01T16:10:07;28.20;45.80
43858;DHT22;29507;51.284;5.758;2022-09-01T16:12:40;28.20;46.20
43858;DHT22;29507;51.284;5.758;2022-09-01T16:15:08;28.10;46.00
43858;DHT22;29507;51.284;5.758;2022-09-01T16:17:43;28.00;46.20
43858;DHT22;29507;51.284;5.758;2022-09-01T16:20:27;27.90;46.50
43858;DHT22;29507;51.284;5.758;2022-09-01T16:23:04;28.00;46.80
43858;DHT22;29507;51.284;5.758;2022-09-01T16:25:32;28.00;47.00
43858;DHT22;29507;51.284;5.758;2022-09-01T16:28:09;27.90;46.80
43858;DHT22;29507;51.284;5.758;2022-09-01T16:30:37;27.80;46.80
43858;DHT22;29507;51.284;5.758;2022-09-01T16:33:03;27.70;46.30
43858;DHT22;29507;51.284;5.758;2022-09-01T16:35:44;27.70;46.50
43858;DHT22;29507;51.284;5.758;2022-09-01T16:38:36;27.70;47.00
43858;DHT22;29507;51.284;5.758;2022-09-01T16:41:10;27.90;46.60
43858;DHT22;29507;51.284;5.758;2022-09-01T16:43:58;28.00;47.00
43858;DHT22;29507;51.284;5.758;2022-09-01T16:46:38;28.20;46.40
43858;DHT22;29507;51.284;5.758;2022-09-01T16:52:18;28.40;46.50
43858;DHT22;29507;51.284;5.758;2022-09-01T16:55:02;28.50;46.80
43858;DHT22;29507;51.284;5.758;2022-09-01T17:00:20;28.50;47.30
43858;DHT22;29507;51.284;5.758;2022-09-01T17:08:24;28.50;47.20
43858;DHT22;29507;51.284;5.758;2022-09-01T17:13:49;28.10;47.60
43858;DHT22;29507;51.284;5.758;2022-09-01T17:16:37;28.00;47.70
43858;DHT22;29507;51.284;5.758;2022-09-01T17:19:09;27.90;48.20
43858;DHT22;29507;51.284;5.758;2022-09-01T17:21:39;27.90;48.20
43858;DHT22;29507;51.284;5.758;2022-09-01T17:24:38;27.80;48.30